WUK4ZE EGGW-LQSA
Flight info
| Callsign | WUK4ZE |
|---|---|
| Flight time | 2h 8m |
| Altitude | 37000 |
| Route | MATCH Q295 BRAIN P44 DAGGA M85 ITVIP L10 DVR UL9 KONAN DCT KOK UL607 FERDI DCT LIRSU DCT LALMI DCT ABTAL DCT LATLO DCT OBEDI DCT TEBLI DCT BOSNA |
| Aircraft | A321/M-SDE3FGHIRWY/LB1 |
Departure
| Time | 2026-05-09 06:37 |
|---|---|
| Airport | London Luton Airport (EGGW) |
Arrival
| Time | 2026-05-09 08:46 |
|---|---|
| Airport | Sarajevo International Airport (LQSA) |
| Time | Latitude | Longitude | Altitude | Speed | Heading |
|---|---|---|---|---|---|
| 2026-05-09 06:03 | 51.88084 | -0.37359 | 509 ft | 0 kts | 342° |
| 2026-05-09 06:23 | 51.88083 | -0.37358 | 508 ft | 2 kts | 342° |
| 2026-05-09 06:23 | 51.88059 | -0.37345 | 508 ft | 4 kts | 342° |
| 2026-05-09 06:24 | 51.88037 | -0.37333 | 508 ft | 4 kts | 345° |
| 2026-05-09 06:24 | 51.88018 | -0.37334 | 508 ft | 4 kts | 60° |
| 2026-05-09 06:24 | 51.88012 | -0.37357 | 508 ft | 0 kts | 72° |
| 2026-05-09 06:30 | 51.88012 | -0.37356 | 508 ft | 0 kts | 72° |
| 2026-05-09 06:30 | 51.88016 | -0.37340 | 508 ft | 3 kts | 71° |
| 2026-05-09 06:30 | 51.88024 | -0.37297 | 508 ft | 5 kts | 72° |
| 2026-05-09 06:30 | 51.88038 | -0.37233 | 508 ft | 7 kts | 72° |
| 2026-05-09 06:31 | 51.88035 | -0.37150 | 508 ft | 8 kts | 122° |
| 2026-05-09 06:31 | 51.87981 | -0.37112 | 508 ft | 9 kts | 162° |
| 2026-05-09 06:31 | 51.87913 | -0.37076 | 509 ft | 11 kts | 161° |
| 2026-05-09 06:31 | 51.87842 | -0.37038 | 512 ft | 9 kts | 162° |
| 2026-05-09 06:32 | 51.87788 | -0.37010 | 516 ft | 7 kts | 162° |
| 2026-05-09 06:32 | 51.87751 | -0.36990 | 518 ft | 4 kts | 162° |
| 2026-05-09 06:32 | 51.87736 | -0.36983 | 519 ft | 0 kts | 162° |
| 2026-05-09 06:33 | 51.87679 | -0.36953 | 523 ft | 11 kts | 162° |
| 2026-05-09 06:33 | 51.87624 | -0.37003 | 522 ft | 13 kts | 250° |
| 2026-05-09 06:33 | 51.87597 | -0.37157 | 522 ft | 15 kts | 254° |
| 2026-05-09 06:34 | 51.87560 | -0.37455 | 522 ft | 14 kts | 214° |
| 2026-05-09 06:34 | 51.87499 | -0.37562 | 522 ft | 13 kts | 254° |
| 2026-05-09 06:34 | 51.87475 | -0.37704 | 523 ft | 13 kts | 254° |
| 2026-05-09 06:34 | 51.87448 | -0.37856 | 522 ft | 14 kts | 254° |
| 2026-05-09 06:35 | 51.87417 | -0.38006 | 524 ft | 14 kts | 238° |
| 2026-05-09 06:35 | 51.87353 | -0.38078 | 523 ft | 0 kts | 206° |
| 2026-05-09 06:35 | 51.87352 | -0.38079 | 522 ft | 1 kts | 206° |
| 2026-05-09 06:36 | 51.87331 | -0.38095 | 522 ft | 5 kts | 206° |
| 2026-05-09 06:36 | 51.87286 | -0.38112 | 522 ft | 8 kts | 174° |
| 2026-05-09 06:36 | 51.87250 | -0.38074 | 524 ft | 6 kts | 100° |
| 2026-05-09 06:36 | 51.87262 | -0.38012 | 524 ft | 6 kts | 75° |
| 2026-05-09 06:37 | 51.87299 | -0.37791 | 524 ft | 53 kts | 74° |
| 2026-05-09 06:37 | 51.87468 | -0.36814 | 524 ft | 123 kts | 74° |
| 2026-05-09 06:37 | 51.87748 | -0.35199 | 685 ft | 164 kts | 74° |
| 2026-05-09 06:37 | 51.88046 | -0.33399 | 1461 ft | 164 kts | 76° |
| 2026-05-09 06:38 | 51.88346 | -0.31656 | 2289 ft | 163 kts | 76° |
| 2026-05-09 06:38 | 51.88644 | -0.29937 | 2737 ft | 173 kts | 76° |
| 2026-05-09 06:38 | 51.88988 | -0.27944 | 2916 ft | 195 kts | 76° |
| 2026-05-09 06:38 | 51.89373 | -0.25708 | 3030 ft | 218 kts | 75° |
| 2026-05-09 06:39 | 51.89511 | -0.23155 | 3221 ft | 242 kts | 103° |
| 2026-05-09 06:39 | 51.88673 | -0.20758 | 3708 ft | 254 kts | 138° |
| 2026-05-09 06:39 | 51.87103 | -0.19395 | 4420 ft | 260 kts | 157° |
| 2026-05-09 06:39 | 51.85413 | -0.18261 | 4896 ft | 265 kts | 155° |
| 2026-05-09 06:40 | 51.83730 | -0.17061 | 4987 ft | 264 kts | 154° |
| 2026-05-09 06:40 | 51.82120 | -0.15715 | 5245 ft | 266 kts | 141° |
| 2026-05-09 06:40 | 51.80864 | -0.13545 | 6038 ft | 266 kts | 125° |
| 2026-05-09 06:40 | 51.79795 | -0.11110 | 6782 ft | 267 kts | 125° |
| 2026-05-09 06:41 | 51.78723 | -0.08625 | 7467 ft | 271 kts | 125° |
| 2026-05-09 06:41 | 51.77646 | -0.06112 | 8155 ft | 275 kts | 125° |
| 2026-05-09 06:41 | 51.76548 | -0.03555 | 8812 ft | 279 kts | 126° |
| 2026-05-09 06:41 | 51.75433 | -0.00968 | 9477 ft | 283 kts | 126° |
| 2026-05-09 06:42 | 51.74296 | 0.01667 | 10078 ft | 289 kts | 126° |
| 2026-05-09 06:42 | 51.73128 | 0.04381 | 10457 ft | 304 kts | 126° |
| 2026-05-09 06:42 | 51.71880 | 0.07280 | 10593 ft | 326 kts | 126° |
| 2026-05-09 06:42 | 51.70567 | 0.10326 | 10751 ft | 345 kts | 126° |
| 2026-05-09 06:43 | 51.69176 | 0.13535 | 11208 ft | 352 kts | 126° |
| 2026-05-09 06:43 | 51.67764 | 0.16784 | 11814 ft | 356 kts | 126° |
| 2026-05-09 06:43 | 51.66339 | 0.20065 | 12417 ft | 359 kts | 126° |
| 2026-05-09 06:43 | 51.64899 | 0.23381 | 13011 ft | 363 kts | 126° |
| 2026-05-09 06:44 | 51.63447 | 0.26727 | 13629 ft | 367 kts | 126° |
| 2026-05-09 06:44 | 51.61978 | 0.30109 | 14202 ft | 370 kts | 126° |
| 2026-05-09 06:44 | 51.60530 | 0.33432 | 14750 ft | 373 kts | 126° |
| 2026-05-09 06:44 | 51.59051 | 0.36813 | 15295 ft | 376 kts | 126° |
| 2026-05-09 06:45 | 51.57542 | 0.40261 | 15871 ft | 378 kts | 126° |
| 2026-05-09 06:45 | 51.56023 | 0.43726 | 16423 ft | 381 kts | 126° |
| 2026-05-09 06:45 | 51.54492 | 0.47226 | 16983 ft | 384 kts | 126° |
| 2026-05-09 06:45 | 51.52949 | 0.50744 | 17513 ft | 387 kts | 126° |
| 2026-05-09 06:46 | 51.51391 | 0.54290 | 18050 ft | 390 kts | 126° |
| 2026-05-09 06:46 | 51.49821 | 0.57861 | 18571 ft | 393 kts | 126° |
| 2026-05-09 06:46 | 51.48239 | 0.61458 | 19043 ft | 395 kts | 126° |
| 2026-05-09 06:46 | 51.46649 | 0.65063 | 19555 ft | 397 kts | 126° |
| 2026-05-09 06:47 | 51.45069 | 0.68632 | 20050 ft | 399 kts | 126° |
| 2026-05-09 06:47 | 51.43461 | 0.72264 | 20563 ft | 401 kts | 127° |
| 2026-05-09 06:47 | 51.41842 | 0.75913 | 21043 ft | 403 kts | 127° |
| 2026-05-09 06:47 | 51.40214 | 0.79580 | 21525 ft | 405 kts | 127° |
| 2026-05-09 06:48 | 51.38577 | 0.83263 | 21990 ft | 407 kts | 127° |
| 2026-05-09 06:48 | 51.36932 | 0.86959 | 22444 ft | 409 kts | 127° |
| 2026-05-09 06:48 | 51.35277 | 0.90673 | 22890 ft | 411 kts | 128° |
| 2026-05-09 06:48 | 51.33635 | 0.94353 | 23320 ft | 413 kts | 128° |
| 2026-05-09 06:49 | 51.31962 | 0.98093 | 23733 ft | 414 kts | 127° |
| 2026-05-09 06:49 | 51.30279 | 1.01848 | 24093 ft | 416 kts | 128° |
| 2026-05-09 06:49 | 51.28591 | 1.05613 | 24447 ft | 418 kts | 127° |
| 2026-05-09 06:49 | 51.26938 | 1.09452 | 24799 ft | 420 kts | 126° |
| 2026-05-09 06:50 | 51.25336 | 1.13364 | 25149 ft | 422 kts | 125° |
| 2026-05-09 06:50 | 51.23758 | 1.17323 | 25499 ft | 424 kts | 124° |
| 2026-05-09 06:50 | 51.22178 | 1.21310 | 25836 ft | 426 kts | 124° |
| 2026-05-09 06:50 | 51.20587 | 1.25300 | 26177 ft | 427 kts | 125° |
| 2026-05-09 06:51 | 51.19001 | 1.29241 | 26510 ft | 429 kts | 125° |
| 2026-05-09 06:51 | 51.17532 | 1.33399 | 26836 ft | 433 kts | 117° |
| 2026-05-09 06:51 | 51.16489 | 1.37919 | 27152 ft | 438 kts | 107° |
| 2026-05-09 06:51 | 51.15930 | 1.42714 | 27451 ft | 443 kts | 97° |
| 2026-05-09 06:52 | 51.15697 | 1.47628 | 27729 ft | 446 kts | 96° |
| 2026-05-09 06:52 | 51.15471 | 1.52564 | 28023 ft | 448 kts | 96° |
| 2026-05-09 06:52 | 51.15238 | 1.57525 | 28310 ft | 450 kts | 97° |
| 2026-05-09 06:52 | 51.14997 | 1.62499 | 28600 ft | 452 kts | 97° |
| 2026-05-09 06:53 | 51.14753 | 1.67431 | 28893 ft | 454 kts | 97° |
| 2026-05-09 06:53 | 51.14501 | 1.72446 | 29184 ft | 455 kts | 97° |
| 2026-05-09 06:53 | 51.14246 | 1.77486 | 29477 ft | 457 kts | 97° |
| 2026-05-09 06:53 | 51.13987 | 1.82542 | 29767 ft | 459 kts | 97° |
| 2026-05-09 06:54 | 51.13725 | 1.87616 | 30092 ft | 460 kts | 97° |
| 2026-05-09 06:54 | 51.13459 | 1.92691 | 30428 ft | 459 kts | 97° |
| 2026-05-09 06:54 | 51.13194 | 1.97758 | 30740 ft | 459 kts | 97° |
| 2026-05-09 06:54 | 51.12927 | 2.02817 | 31059 ft | 459 kts | 97° |
| 2026-05-09 06:55 | 51.12661 | 2.07805 | 31395 ft | 458 kts | 97° |
| 2026-05-09 06:55 | 51.12393 | 2.12848 | 31734 ft | 457 kts | 97° |
| 2026-05-09 06:55 | 51.12126 | 2.17877 | 32061 ft | 456 kts | 97° |
| 2026-05-09 06:55 | 51.11858 | 2.22902 | 32390 ft | 455 kts | 97° |
| 2026-05-09 06:56 | 51.11587 | 2.27917 | 32722 ft | 454 kts | 97° |
| 2026-05-09 06:56 | 51.11312 | 2.32919 | 33034 ft | 453 kts | 97° |
| 2026-05-09 06:56 | 51.11034 | 2.37913 | 33339 ft | 453 kts | 97° |
| 2026-05-09 06:56 | 51.10753 | 2.42904 | 33606 ft | 453 kts | 97° |
| 2026-05-09 06:57 | 51.10470 | 2.47897 | 33902 ft | 453 kts | 97° |
| 2026-05-09 06:57 | 51.10187 | 2.52817 | 34184 ft | 452 kts | 97° |
| 2026-05-09 06:57 | 51.09898 | 2.57792 | 34433 ft | 452 kts | 97° |
| 2026-05-09 06:57 | 51.09600 | 2.62772 | 34665 ft | 452 kts | 99° |
| 2026-05-09 06:58 | 51.09021 | 2.67661 | 34898 ft | 449 kts | 107° |
| 2026-05-09 06:58 | 51.08165 | 2.72440 | 35112 ft | 449 kts | 108° |
| 2026-05-09 06:58 | 51.07303 | 2.77216 | 35340 ft | 449 kts | 108° |
| 2026-05-09 06:58 | 51.06438 | 2.81989 | 35563 ft | 449 kts | 108° |
| 2026-05-09 06:59 | 51.05568 | 2.86761 | 35754 ft | 450 kts | 107° |
| 2026-05-09 06:59 | 51.04691 | 2.91549 | 35931 ft | 452 kts | 107° |
| 2026-05-09 06:59 | 51.03813 | 2.96344 | 36124 ft | 452 kts | 107° |
| 2026-05-09 06:59 | 51.02934 | 3.01142 | 36338 ft | 452 kts | 107° |
| 2026-05-09 07:00 | 51.02067 | 3.05872 | 36524 ft | 452 kts | 108° |
| 2026-05-09 07:00 | 51.01187 | 3.10667 | 36743 ft | 452 kts | 108° |
| 2026-05-09 07:00 | 51.00305 | 3.15463 | 36931 ft | 453 kts | 108° |
| 2026-05-09 07:00 | 50.99418 | 3.20258 | 37093 ft | 453 kts | 108° |
| 2026-05-09 07:01 | 50.97633 | 3.29847 | 37130 ft | 453 kts | 108° |
| 2026-05-09 07:01 | 50.95837 | 3.39442 | 37128 ft | 454 kts | 107° |
| 2026-05-09 07:02 | 50.94045 | 3.48978 | 37127 ft | 454 kts | 107° |
| 2026-05-09 07:02 | 50.92231 | 3.58568 | 37128 ft | 454 kts | 108° |
| 2026-05-09 07:03 | 50.90310 | 3.68109 | 37127 ft | 454 kts | 110° |
| 2026-05-09 07:03 | 50.88051 | 3.77458 | 37138 ft | 455 kts | 112° |
| 2026-05-09 07:04 | 50.85675 | 3.86750 | 37134 ft | 456 kts | 112° |
| 2026-05-09 07:04 | 50.83356 | 3.96026 | 37142 ft | 457 kts | 112° |
| 2026-05-09 07:05 | 50.81067 | 4.05397 | 37147 ft | 457 kts | 111° |
| 2026-05-09 07:05 | 50.78769 | 4.14766 | 37151 ft | 457 kts | 112° |
| 2026-05-09 07:06 | 50.76842 | 4.22536 | 37155 ft | 457 kts | 112° |
| 2026-05-09 07:06 | 50.74137 | 4.33386 | 37158 ft | 457 kts | 112° |
| 2026-05-09 07:07 | 50.71804 | 4.42708 | 37155 ft | 457 kts | 112° |
| 2026-05-09 07:07 | 50.69465 | 4.52023 | 37152 ft | 457 kts | 112° |
| 2026-05-09 07:08 | 50.67119 | 4.61323 | 37152 ft | 457 kts | 112° |
| 2026-05-09 07:08 | 50.64760 | 4.70627 | 37138 ft | 457 kts | 112° |
| 2026-05-09 07:09 | 50.62413 | 4.79856 | 37138 ft | 458 kts | 112° |
| 2026-05-09 07:09 | 50.60040 | 4.89154 | 37143 ft | 458 kts | 112° |
| 2026-05-09 07:10 | 50.57649 | 4.98442 | 37138 ft | 458 kts | 112° |
| 2026-05-09 07:10 | 50.55260 | 5.07727 | 37141 ft | 458 kts | 112° |
| 2026-05-09 07:11 | 50.52885 | 5.16937 | 37134 ft | 458 kts | 112° |
| 2026-05-09 07:11 | 50.50477 | 5.26219 | 37136 ft | 459 kts | 112° |
| 2026-05-09 07:12 | 50.48052 | 5.35501 | 37139 ft | 460 kts | 112° |
| 2026-05-09 07:12 | 50.45624 | 5.44784 | 37140 ft | 460 kts | 112° |
| 2026-05-09 07:13 | 50.43204 | 5.54005 | 37145 ft | 460 kts | 112° |
| 2026-05-09 07:13 | 50.40756 | 5.63281 | 37139 ft | 461 kts | 112° |
| 2026-05-09 07:14 | 50.38295 | 5.72552 | 37140 ft | 461 kts | 112° |
| 2026-05-09 07:14 | 50.35827 | 5.81820 | 37138 ft | 461 kts | 112° |
| 2026-05-09 07:15 | 50.33376 | 5.91026 | 37139 ft | 461 kts | 112° |
| 2026-05-09 07:15 | 50.30895 | 6.00283 | 37139 ft | 461 kts | 112° |
| 2026-05-09 07:16 | 50.28405 | 6.09537 | 37126 ft | 462 kts | 112° |
| 2026-05-09 07:16 | 50.25902 | 6.18796 | 37125 ft | 462 kts | 112° |
| 2026-05-09 07:17 | 50.23404 | 6.27979 | 37114 ft | 463 kts | 113° |
| 2026-05-09 07:17 | 50.20877 | 6.37225 | 37119 ft | 463 kts | 113° |
| 2026-05-09 07:18 | 50.18320 | 6.46447 | 37121 ft | 463 kts | 114° |
| 2026-05-09 07:18 | 50.15433 | 6.55434 | 37115 ft | 464 kts | 118° |
| 2026-05-09 07:19 | 50.12355 | 6.64195 | 37128 ft | 464 kts | 118° |
| 2026-05-09 07:19 | 50.09261 | 6.73026 | 37132 ft | 464 kts | 118° |
| 2026-05-09 07:20 | 50.06226 | 6.81901 | 37133 ft | 464 kts | 117° |
| 2026-05-09 07:20 | 50.03208 | 6.90785 | 37131 ft | 465 kts | 117° |
| 2026-05-09 07:21 | 50.00194 | 6.99597 | 37149 ft | 465 kts | 117° |
| 2026-05-09 07:21 | 49.97140 | 7.08451 | 37142 ft | 465 kts | 117° |
| 2026-05-09 07:22 | 49.94072 | 7.17300 | 37145 ft | 466 kts | 118° |
| 2026-05-09 07:22 | 49.90998 | 7.26144 | 37142 ft | 466 kts | 118° |
| 2026-05-09 07:23 | 49.87939 | 7.34931 | 37154 ft | 466 kts | 117° |
| 2026-05-09 07:23 | 49.84852 | 7.43771 | 37152 ft | 467 kts | 117° |
| 2026-05-09 07:24 | 49.81751 | 7.52603 | 37154 ft | 467 kts | 118° |
| 2026-05-09 07:24 | 49.78636 | 7.61425 | 37154 ft | 467 kts | 118° |
| 2026-05-09 07:25 | 49.75548 | 7.70182 | 37163 ft | 467 kts | 117° |
| 2026-05-09 07:25 | 49.72427 | 7.78996 | 37159 ft | 467 kts | 118° |
| 2026-05-09 07:26 | 49.69294 | 7.87799 | 37137 ft | 468 kts | 118° |
| 2026-05-09 07:26 | 49.66153 | 7.96605 | 37141 ft | 468 kts | 118° |
| 2026-05-09 07:27 | 49.63027 | 8.05351 | 37151 ft | 469 kts | 118° |
| 2026-05-09 07:27 | 49.59864 | 8.14148 | 37167 ft | 469 kts | 118° |
| 2026-05-09 07:28 | 49.56691 | 8.22942 | 37156 ft | 470 kts | 118° |
| 2026-05-09 07:28 | 49.54046 | 8.30250 | 37154 ft | 470 kts | 118° |
| 2026-05-09 07:29 | 49.50338 | 8.40458 | 37151 ft | 470 kts | 119° |
| 2026-05-09 07:29 | 49.47141 | 8.49235 | 37155 ft | 471 kts | 119° |
| 2026-05-09 07:30 | 49.44479 | 8.56527 | 37154 ft | 471 kts | 119° |
| 2026-05-09 07:30 | 49.41268 | 8.65299 | 37139 ft | 471 kts | 119° |
| 2026-05-09 07:31 | 49.37529 | 8.75490 | 37143 ft | 472 kts | 119° |
| 2026-05-09 07:31 | 49.34291 | 8.84247 | 37141 ft | 472 kts | 120° |
| 2026-05-09 07:32 | 49.31007 | 8.92974 | 37149 ft | 473 kts | 120° |
| 2026-05-09 07:32 | 49.27692 | 9.01676 | 37139 ft | 473 kts | 120° |
| 2026-05-09 07:33 | 49.22737 | 9.14681 | 37134 ft | 474 kts | 120° |
| 2026-05-09 07:34 | 49.19411 | 9.23398 | 37134 ft | 475 kts | 120° |
| 2026-05-09 07:34 | 49.16639 | 9.30640 | 37138 ft | 475 kts | 120° |
| 2026-05-09 07:35 | 49.13302 | 9.39350 | 37134 ft | 476 kts | 121° |
| 2026-05-09 07:35 | 49.09396 | 9.49472 | 37135 ft | 477 kts | 121° |
| 2026-05-09 07:36 | 49.06021 | 9.58175 | 37140 ft | 477 kts | 121° |
| 2026-05-09 07:36 | 49.03207 | 9.65414 | 37147 ft | 478 kts | 121° |
| 2026-05-09 07:37 | 48.99820 | 9.74134 | 37154 ft | 479 kts | 121° |
| 2026-05-09 07:37 | 48.96417 | 9.82855 | 37146 ft | 479 kts | 121° |
| 2026-05-09 07:38 | 48.93021 | 9.91514 | 37139 ft | 480 kts | 122° |
| 2026-05-09 07:38 | 48.89595 | 10.00231 | 37133 ft | 480 kts | 121° |
| 2026-05-09 07:39 | 48.86165 | 10.08945 | 37127 ft | 481 kts | 122° |
| 2026-05-09 07:39 | 48.82675 | 10.17613 | 37131 ft | 482 kts | 123° |
| 2026-05-09 07:40 | 48.79092 | 10.26204 | 37145 ft | 482 kts | 123° |
| 2026-05-09 07:40 | 48.75509 | 10.34726 | 37156 ft | 483 kts | 123° |
| 2026-05-09 07:41 | 48.71918 | 10.43329 | 37159 ft | 483 kts | 123° |
| 2026-05-09 07:41 | 48.68329 | 10.51934 | 37162 ft | 483 kts | 123° |
| 2026-05-09 07:42 | 48.64733 | 10.60519 | 37160 ft | 483 kts | 123° |
| 2026-05-09 07:42 | 48.61126 | 10.69093 | 37163 ft | 483 kts | 124° |
| 2026-05-09 07:43 | 48.57534 | 10.77600 | 37150 ft | 483 kts | 124° |
| 2026-05-09 07:43 | 48.53911 | 10.86147 | 37150 ft | 484 kts | 124° |
| 2026-05-09 07:44 | 48.50279 | 10.94691 | 37159 ft | 484 kts | 124° |
| 2026-05-09 07:44 | 48.46646 | 11.03222 | 37160 ft | 484 kts | 124° |
| 2026-05-09 07:45 | 48.43030 | 11.11687 | 37157 ft | 484 kts | 124° |
| 2026-05-09 07:45 | 48.39379 | 11.20199 | 37158 ft | 484 kts | 124° |
| 2026-05-09 07:46 | 48.35727 | 11.28694 | 37150 ft | 483 kts | 125° |
| 2026-05-09 07:46 | 48.32069 | 11.37172 | 37155 ft | 483 kts | 125° |
| 2026-05-09 07:47 | 48.28407 | 11.45632 | 37154 ft | 483 kts | 125° |
| 2026-05-09 07:47 | 48.24766 | 11.54020 | 37156 ft | 483 kts | 125° |
| 2026-05-09 07:48 | 48.21092 | 11.62450 | 37155 ft | 483 kts | 126° |
| 2026-05-09 07:48 | 48.17411 | 11.70866 | 37153 ft | 483 kts | 125° |
| 2026-05-09 07:49 | 48.13728 | 11.79275 | 37150 ft | 483 kts | 125° |
| 2026-05-09 07:49 | 48.10069 | 11.87617 | 37147 ft | 483 kts | 126° |
| 2026-05-09 07:50 | 48.06370 | 11.96012 | 37145 ft | 483 kts | 126° |
| 2026-05-09 07:50 | 48.02661 | 12.04386 | 37143 ft | 483 kts | 126° |
| 2026-05-09 07:51 | 47.98945 | 12.12757 | 37123 ft | 484 kts | 126° |
| 2026-05-09 07:51 | 47.95354 | 12.20830 | 37129 ft | 485 kts | 126° |
| 2026-05-09 07:52 | 47.91620 | 12.29205 | 37140 ft | 485 kts | 126° |
| 2026-05-09 07:52 | 47.87873 | 12.37561 | 37141 ft | 485 kts | 126° |
| 2026-05-09 07:53 | 47.84121 | 12.45902 | 37140 ft | 485 kts | 126° |
| 2026-05-09 07:53 | 47.80392 | 12.54183 | 37150 ft | 485 kts | 126° |
| 2026-05-09 07:54 | 47.76637 | 12.62509 | 37158 ft | 485 kts | 126° |
| 2026-05-09 07:54 | 47.72873 | 12.70812 | 37143 ft | 484 kts | 127° |
| 2026-05-09 07:55 | 47.69082 | 12.79077 | 37158 ft | 483 kts | 130° |
| 2026-05-09 07:55 | 47.64560 | 12.86347 | 37169 ft | 479 kts | 139° |
| 2026-05-09 07:56 | 47.59871 | 12.93270 | 37161 ft | 479 kts | 138° |
| 2026-05-09 07:56 | 47.55151 | 13.00236 | 37153 ft | 479 kts | 138° |
| 2026-05-09 07:57 | 47.45395 | 13.14574 | 37119 ft | 480 kts | 139° |
| 2026-05-09 07:58 | 47.40678 | 13.21471 | 37134 ft | 480 kts | 139° |
| 2026-05-09 07:58 | 47.35928 | 13.28406 | 37143 ft | 480 kts | 139° |
| 2026-05-09 07:59 | 47.31200 | 13.35361 | 37142 ft | 481 kts | 136° |
| 2026-05-09 07:59 | 47.26731 | 13.42716 | 37143 ft | 482 kts | 133° |
| 2026-05-09 08:00 | 47.22401 | 13.50255 | 37139 ft | 482 kts | 134° |
| 2026-05-09 08:00 | 47.18042 | 13.57655 | 37130 ft | 482 kts | 135° |
| 2026-05-09 08:01 | 47.13590 | 13.65010 | 37146 ft | 482 kts | 135° |
| 2026-05-09 08:01 | 47.09119 | 13.72335 | 37152 ft | 482 kts | 135° |
| 2026-05-09 08:02 | 47.04673 | 13.79618 | 37146 ft | 482 kts | 135° |
| 2026-05-09 08:02 | 47.00210 | 13.86965 | 37148 ft | 483 kts | 135° |
| 2026-05-09 08:03 | 46.95746 | 13.94311 | 37144 ft | 482 kts | 135° |
| 2026-05-09 08:03 | 46.91274 | 14.01628 | 37124 ft | 482 kts | 135° |
| 2026-05-09 08:04 | 46.86795 | 14.08940 | 37145 ft | 483 kts | 135° |
| 2026-05-09 08:04 | 46.82345 | 14.16182 | 37153 ft | 482 kts | 135° |
| 2026-05-09 08:05 | 46.77859 | 14.23451 | 37158 ft | 482 kts | 135° |
| 2026-05-09 08:05 | 46.73370 | 14.30714 | 37161 ft | 482 kts | 135° |
| 2026-05-09 08:06 | 46.68884 | 14.37957 | 37158 ft | 482 kts | 135° |
| 2026-05-09 08:06 | 46.64422 | 14.45140 | 37153 ft | 481 kts | 135° |
| 2026-05-09 08:07 | 46.59916 | 14.52357 | 37161 ft | 481 kts | 135° |
| 2026-05-09 08:07 | 46.55420 | 14.59554 | 37159 ft | 481 kts | 135° |
| 2026-05-09 08:08 | 46.50931 | 14.66725 | 37153 ft | 480 kts | 135° |
| 2026-05-09 08:08 | 46.46462 | 14.73833 | 37156 ft | 480 kts | 136° |
| 2026-05-09 08:09 | 46.41965 | 14.80974 | 37135 ft | 479 kts | 135° |
| 2026-05-09 08:09 | 46.37467 | 14.88109 | 37158 ft | 479 kts | 136° |
| 2026-05-09 08:10 | 46.32965 | 14.95211 | 37149 ft | 479 kts | 136° |
| 2026-05-09 08:10 | 46.28451 | 15.02295 | 37134 ft | 479 kts | 136° |
| 2026-05-09 08:11 | 46.23970 | 15.09339 | 37140 ft | 479 kts | 136° |
| 2026-05-09 08:11 | 46.19456 | 15.16427 | 37154 ft | 479 kts | 136° |
| 2026-05-09 08:12 | 46.12672 | 15.27030 | 37153 ft | 479 kts | 136° |
| 2026-05-09 08:12 | 46.08149 | 15.34072 | 37158 ft | 479 kts | 136° |
| 2026-05-09 08:13 | 46.03647 | 15.41055 | 37154 ft | 479 kts | 136° |
| 2026-05-09 08:13 | 45.99135 | 15.48044 | 37156 ft | 479 kts | 136° |
| 2026-05-09 08:14 | 45.94598 | 15.55052 | 37157 ft | 479 kts | 136° |
| 2026-05-09 08:14 | 45.90055 | 15.62051 | 37158 ft | 479 kts | 136° |
| 2026-05-09 08:15 | 45.85540 | 15.68992 | 37150 ft | 479 kts | 136° |
| 2026-05-09 08:15 | 45.80990 | 15.75963 | 37151 ft | 479 kts | 136° |
| 2026-05-09 08:16 | 45.76439 | 15.82919 | 37145 ft | 478 kts | 136° |
| 2026-05-09 08:16 | 45.71887 | 15.89866 | 37136 ft | 478 kts | 136° |
| 2026-05-09 08:17 | 45.67335 | 15.96799 | 37132 ft | 478 kts | 136° |
| 2026-05-09 08:17 | 45.62774 | 16.03716 | 37128 ft | 478 kts | 136° |
| 2026-05-09 08:18 | 45.58245 | 16.10574 | 37128 ft | 478 kts | 136° |
| 2026-05-09 08:18 | 45.53686 | 16.17469 | 37117 ft | 478 kts | 136° |
| 2026-05-09 08:19 | 45.49122 | 16.24351 | 37121 ft | 477 kts | 136° |
| 2026-05-09 08:19 | 45.44547 | 16.31209 | 37126 ft | 477 kts | 137° |
| 2026-05-09 08:20 | 45.39968 | 16.38053 | 37128 ft | 477 kts | 136° |
| 2026-05-09 08:20 | 45.37711 | 16.41432 | 36899 ft | 477 kts | 136° |
| 2026-05-09 08:20 | 45.35435 | 16.44839 | 36647 ft | 475 kts | 136° |
| 2026-05-09 08:21 | 45.33160 | 16.48242 | 36384 ft | 475 kts | 136° |
| 2026-05-09 08:21 | 45.30884 | 16.51643 | 35989 ft | 475 kts | 136° |
| 2026-05-09 08:21 | 45.28595 | 16.55049 | 35302 ft | 478 kts | 137° |
| 2026-05-09 08:21 | 45.26289 | 16.58466 | 34594 ft | 480 kts | 137° |
| 2026-05-09 08:22 | 45.23968 | 16.61896 | 33765 ft | 484 kts | 137° |
| 2026-05-09 08:22 | 45.21631 | 16.65351 | 33013 ft | 485 kts | 137° |
| 2026-05-09 08:22 | 45.19306 | 16.68765 | 32599 ft | 478 kts | 138° |
| 2026-05-09 08:22 | 45.16977 | 16.72021 | 32078 ft | 475 kts | 139° |
| 2026-05-09 08:23 | 45.14583 | 16.75218 | 31553 ft | 471 kts | 140° |
| 2026-05-09 08:23 | 45.12181 | 16.78341 | 31035 ft | 468 kts | 141° |
| 2026-05-09 08:23 | 45.09777 | 16.81435 | 30534 ft | 465 kts | 141° |
| 2026-05-09 08:23 | 45.07395 | 16.84511 | 29993 ft | 462 kts | 140° |
| 2026-05-09 08:24 | 45.05040 | 16.87580 | 29474 ft | 458 kts | 140° |
| 2026-05-09 08:24 | 45.03498 | 16.89602 | 29153 ft | 454 kts | 140° |
| 2026-05-09 08:26 | 45.01205 | 16.92771 | 30504 ft | 395 kts | 139° |
| 2026-05-09 08:26 | 44.99183 | 16.95562 | 29259 ft | 418 kts | 139° |
| 2026-05-09 08:26 | 44.97031 | 16.98448 | 27918 ft | 437 kts | 139° |
| 2026-05-09 08:27 | 44.94782 | 17.01376 | 27222 ft | 438 kts | 140° |
| 2026-05-09 08:27 | 44.92533 | 17.04242 | 26800 ft | 433 kts | 140° |
| 2026-05-09 08:27 | 44.90339 | 17.07032 | 26352 ft | 429 kts | 140° |
| 2026-05-09 08:27 | 44.88140 | 17.09853 | 25926 ft | 425 kts | 140° |
| 2026-05-09 08:28 | 44.85974 | 17.12661 | 25488 ft | 422 kts | 139° |
| 2026-05-09 08:28 | 44.83833 | 17.15460 | 25068 ft | 418 kts | 139° |
| 2026-05-09 08:28 | 44.81709 | 17.18245 | 24655 ft | 416 kts | 139° |
| 2026-05-09 08:28 | 44.79598 | 17.21012 | 24243 ft | 414 kts | 138° |
| 2026-05-09 08:29 | 44.77494 | 17.23762 | 23820 ft | 412 kts | 138° |
| 2026-05-09 08:29 | 44.75427 | 17.26463 | 23364 ft | 410 kts | 138° |
| 2026-05-09 08:29 | 44.73345 | 17.29180 | 22929 ft | 407 kts | 138° |
| 2026-05-09 08:29 | 44.71279 | 17.31867 | 22505 ft | 403 kts | 139° |
| 2026-05-09 08:30 | 44.69229 | 17.34525 | 22071 ft | 399 kts | 139° |
| 2026-05-09 08:30 | 44.67204 | 17.37147 | 21644 ft | 396 kts | 139° |
| 2026-05-09 08:30 | 44.65183 | 17.39769 | 21199 ft | 393 kts | 139° |
| 2026-05-09 08:30 | 44.63184 | 17.42360 | 20766 ft | 390 kts | 139° |
| 2026-05-09 08:31 | 44.61199 | 17.44933 | 20323 ft | 387 kts | 138° |
| 2026-05-09 08:31 | 44.59230 | 17.47481 | 19883 ft | 384 kts | 139° |
| 2026-05-09 08:31 | 44.57298 | 17.49973 | 19450 ft | 381 kts | 139° |
| 2026-05-09 08:31 | 44.55482 | 17.52313 | 19039 ft | 379 kts | 139° |
| 2026-05-09 08:32 | 44.53545 | 17.54806 | 18600 ft | 377 kts | 139° |
| 2026-05-09 08:32 | 44.51621 | 17.57280 | 18121 ft | 374 kts | 138° |
| 2026-05-09 08:32 | 44.47890 | 17.62075 | 17269 ft | 367 kts | 138° |
| 2026-05-09 08:33 | 44.46020 | 17.64478 | 16838 ft | 363 kts | 138° |
| 2026-05-09 08:33 | 44.44197 | 17.66821 | 16423 ft | 359 kts | 138° |
| 2026-05-09 08:33 | 44.42366 | 17.69169 | 15999 ft | 355 kts | 138° |
| 2026-05-09 08:33 | 44.40554 | 17.71488 | 15581 ft | 352 kts | 138° |
| 2026-05-09 08:34 | 44.38756 | 17.73787 | 15165 ft | 349 kts | 138° |
| 2026-05-09 08:34 | 44.36989 | 17.76092 | 14750 ft | 346 kts | 134° |
| 2026-05-09 08:34 | 44.35401 | 17.78599 | 14344 ft | 343 kts | 131° |
| 2026-05-09 08:34 | 44.33837 | 17.81103 | 13924 ft | 341 kts | 131° |
| 2026-05-09 08:35 | 44.32283 | 17.83584 | 13488 ft | 338 kts | 131° |
| 2026-05-09 08:35 | 44.30743 | 17.86038 | 13082 ft | 334 kts | 131° |
| 2026-05-09 08:35 | 44.29242 | 17.88427 | 12691 ft | 330 kts | 131° |
| 2026-05-09 08:35 | 44.27736 | 17.90820 | 12294 ft | 326 kts | 131° |
| 2026-05-09 08:36 | 44.26254 | 17.93179 | 11910 ft | 323 kts | 131° |
| 2026-05-09 08:36 | 44.24774 | 17.95539 | 11518 ft | 320 kts | 131° |
| 2026-05-09 08:36 | 44.23311 | 17.97868 | 11132 ft | 317 kts | 131° |
| 2026-05-09 08:36 | 44.21678 | 17.99912 | 10742 ft | 316 kts | 144° |
| 2026-05-09 08:37 | 44.19747 | 18.01347 | 10384 ft | 314 kts | 159° |
| 2026-05-09 08:37 | 44.17674 | 18.02075 | 10262 ft | 302 kts | 172° |
| 2026-05-09 08:37 | 44.15644 | 18.02367 | 9843 ft | 294 kts | 173° |
| 2026-05-09 08:37 | 44.13630 | 18.02643 | 9615 ft | 291 kts | 173° |
| 2026-05-09 08:38 | 44.11599 | 18.02921 | 9129 ft | 294 kts | 173° |
| 2026-05-09 08:38 | 44.09571 | 18.03196 | 8799 ft | 291 kts | 173° |
| 2026-05-09 08:38 | 44.07576 | 18.03464 | 8112 ft | 287 kts | 172° |
| 2026-05-09 08:38 | 44.05603 | 18.03730 | 7501 ft | 283 kts | 172° |
| 2026-05-09 08:39 | 44.03647 | 18.03999 | 6989 ft | 284 kts | 173° |
| 2026-05-09 08:39 | 44.01676 | 18.04272 | 6567 ft | 284 kts | 173° |
| 2026-05-09 08:39 | 43.99725 | 18.04538 | 6300 ft | 274 kts | 173° |
| 2026-05-09 08:39 | 43.97913 | 18.04781 | 6195 ft | 256 kts | 173° |
| 2026-05-09 08:40 | 43.96201 | 18.05012 | 6102 ft | 240 kts | 173° |
| 2026-05-09 08:40 | 43.94604 | 18.05276 | 6003 ft | 221 kts | 165° |
| 2026-05-09 08:40 | 43.93259 | 18.06036 | 5924 ft | 198 kts | 145° |
| 2026-05-09 08:40 | 43.92239 | 18.07243 | 5785 ft | 194 kts | 129° |
| 2026-05-09 08:41 | 43.91523 | 18.08821 | 5553 ft | 193 kts | 115° |
| 2026-05-09 08:41 | 43.90912 | 18.10470 | 5290 ft | 193 kts | 114° |
| 2026-05-09 08:41 | 43.90300 | 18.12117 | 5021 ft | 191 kts | 113° |
| 2026-05-09 08:41 | 43.89698 | 18.13737 | 4720 ft | 192 kts | 115° |
| 2026-05-09 08:42 | 43.89083 | 18.15393 | 4437 ft | 194 kts | 114° |
| 2026-05-09 08:42 | 43.88460 | 18.17066 | 4149 ft | 195 kts | 117° |
| 2026-05-09 08:42 | 43.87836 | 18.18742 | 3882 ft | 196 kts | 116° |
| 2026-05-09 08:42 | 43.87211 | 18.20417 | 3623 ft | 194 kts | 116° |
| 2026-05-09 08:43 | 43.86600 | 18.22058 | 3342 ft | 184 kts | 116° |
| 2026-05-09 08:43 | 43.86040 | 18.23556 | 3098 ft | 167 kts | 115° |
| 2026-05-09 08:43 | 43.85527 | 18.24931 | 2874 ft | 156 kts | 116° |
| 2026-05-09 08:43 | 43.85035 | 18.26251 | 2665 ft | 153 kts | 115° |
| 2026-05-09 08:44 | 43.85016 | 18.26302 | 2655 ft | 153 kts | 115° |
| 2026-05-09 08:44 | 43.84925 | 18.26535 | 2608 ft | 153 kts | 116° |
| 2026-05-09 08:45 | 43.84427 | 18.27830 | 2402 ft | 152 kts | 115° |
| 2026-05-09 08:45 | 43.83948 | 18.29147 | 2168 ft | 154 kts | 115° |
| 2026-05-09 08:45 | 43.83456 | 18.30480 | 1925 ft | 155 kts | 117° |
| 2026-05-09 08:45 | 43.82968 | 18.31800 | 1709 ft | 157 kts | 117° |
| 2026-05-09 08:46 | 43.82494 | 18.33051 | 1690 ft | 129 kts | 117° |
| 2026-05-09 08:46 | 43.82162 | 18.33936 | 1708 ft | 74 kts | 139° |
| 2026-05-09 08:46 | 43.82026 | 18.34289 | 1709 ft | 17 kts | 110° |
| 2026-05-09 08:46 | 43.81985 | 18.34415 | 1712 ft | 14 kts | 116° |
| 2026-05-09 08:47 | 43.81944 | 18.34529 | 1715 ft | 13 kts | 116° |
| 2026-05-09 08:47 | 43.81981 | 18.34611 | 1716 ft | 11 kts | 28° |
| 2026-05-09 08:47 | 43.82065 | 18.34616 | 1714 ft | 14 kts | 341° |
| 2026-05-09 08:47 | 43.82129 | 18.34505 | 1711 ft | 17 kts | 296° |
| 2026-05-09 08:48 | 43.82187 | 18.34348 | 1707 ft | 20 kts | 298° |
| 2026-05-09 08:48 | 43.82253 | 18.34170 | 1702 ft | 22 kts | 297° |
| 2026-05-09 08:48 | 43.82331 | 18.33965 | 1694 ft | 26 kts | 299° |
| 2026-05-09 08:48 | 43.82416 | 18.33740 | 1692 ft | 19 kts | 298° |
| 2026-05-09 08:49 | 43.82448 | 18.33710 | 1687 ft | 4 kts | 27° |
| 2026-05-09 08:49 | 43.82479 | 18.33731 | 1688 ft | 6 kts | 26° |
| 2026-05-09 08:49 | 43.82496 | 18.33743 | 1685 ft | 0 kts | 26° |